Time;durP1;ratioP1;P1;durP2;ratioP2;P2;SDS_P1;SDS_P2;PMS_P1;PMS_P2;Temp;Humidity;BMP_temperature;BMP_pressure;BME280_temperature;BME280_humidity;BME280_pressure;Samples;Min_cycle;Max_cycle;Signal;HPM_P1;HPM_P2
2023/04/15 00:01:36;;;;;;;0.20;0.20;;;;;;;3.83;100.00;99095.69;4913273;29;20310;-73
2023/04/15 00:04:04;;;;;;;0.20;0.20;;;;;;;3.79;100.00;99094.75;4909391;29;20239;-72
2023/04/15 00:06:31;;;;;;;0.20;0.20;;;;;;;3.79;100.00;99105.22;4895416;29;20259;-73
2023/04/15 00:08:59;;;;;;;0.20;0.20;;;;;;;3.93;100.00;99134.22;4894761;29;20263;-73
2023/04/15 00:11:27;;;;;;;0.20;0.20;;;;;;;3.81;100.00;99118.31;4910057;29;20262;-73
2023/04/15 00:13:55;;;;;;;0.20;0.20;;;;;;;3.64;100.00;99125.00;4914496;29;20659;-73
2023/04/15 00:16:22;;;;;;;0.20;0.20;;;;;;;3.71;100.00;99121.63;4910907;29;20334;-73
2023/04/15 00:18:50;;;;;;;0.20;0.20;;;;;;;3.54;100.00;99124.88;4894801;29;20234;-72
2023/04/15 00:21:18;;;;;;;0.20;0.20;;;;;;;3.54;100.00;99127.50;4910148;29;20243;-73
2023/04/15 00:23:48;;;;;;;0.30;0.30;;;;;;;3.70;100.00;99151.25;4902840;29;20258;-73
2023/04/15 00:26:15;;;;;;;0.20;0.20;;;;;;;3.50;100.00;99157.03;4915798;29;20289;-73
2023/04/15 00:28:43;;;;;;;0.20;0.20;;;;;;;3.55;100.00;99154.50;4910970;29;20318;-73
2023/04/15 00:31:11;;;;;;;0.20;0.20;;;;;;;3.64;100.00;99175.56;4911533;29;20262;-73
2023/04/15 00:33:38;;;;;;;0.30;0.30;;;;;;;3.44;100.00;99162.16;4912748;29;20243;-73
2023/04/15 00:36:07;;;;;;;0.22;0.22;;;;;;;3.42;100.00;99168.22;4911116;29;20251;-73
2023/04/15 00:38:35;;;;;;;0.20;0.20;;;;;;;3.39;100.00;99169.03;4919436;29;20317;-73
2023/04/15 00:41:03;;;;;;;0.20;0.20;;;;;;;3.29;100.00;99166.25;4911401;29;20239;-73
2023/04/15 00:43:30;;;;;;;0.20;0.20;;;;;;;3.09;100.00;99168.50;4913365;29;20239;-74
2023/04/15 00:45:58;;;;;;;0.20;0.20;;;3.00;99.90;;;3.25;100.00;99174.88;4911064;29;20619;-73
2023/04/15 00:48:26;;;;;;;0.20;0.20;;;;;;;3.21;100.00;99187.88;4895337;29;20239;-73
2023/04/15 00:50:54;;;;;;;0.20;0.20;;;;;;;3.36;100.00;99207.31;4879487;29;20295;-73
2023/04/15 00:53:21;;;;;;;0.20;0.20;;;;;;;3.30;100.00;99204.59;4910375;29;20262;-73
2023/04/15 00:55:50;;;;;;;0.20;0.20;;;;;;;3.22;100.00;99214.91;4913169;29;20258;-73
2023/04/15 00:58:17;;;;;;;0.20;0.20;;;3.10;99.90;;;3.26;100.00;99218.44;4896876;29;20231;-73
2023/04/15 01:00:45;;;;;;;0.20;0.20;;;;;;;3.13;100.00;99226.03;4893242;29;20327;-73
2023/04/15 01:03:14;;;;;;;0.20;0.20;;;;;;;3.07;100.00;99230.28;4897163;29;20274;-73
2023/04/15 01:05:41;;;;;;;0.20;0.20;;;;;;;2.91;100.00;99223.00;4902152;29;20735;-73
2023/04/15 01:08:09;;;;;;;0.20;0.20;;;;;;;2.94;100.00;99233.50;4910081;29;20673;-73
2023/04/15 01:10:37;;;;;;;0.20;0.20;;;;;;;3.12;100.00;99259.97;4910104;29;20267;-73
2023/04/15 01:13:04;;;;;;;0.20;0.20;;;;;;;2.90;100.00;99258.66;4891777;29;20231;-73
2023/04/15 01:15:32;;;;;;;0.20;0.20;;;;;;;2.93;100.00;99252.63;4902401;29;20266;-73
2023/04/15 01:17:59;;;;;;;0.20;0.20;;;;;;;2.83;100.00;99262.00;4890875;29;20251;-73
2023/04/15 01:20:28;;;;;;;0.20;0.20;;;2.70;99.90;;;2.72;100.00;99260.88;4894781;29;20270;-73
2023/04/15 01:22:56;;;;;;;0.20;0.20;;;;;;;2.57;100.00;99258.78;4906681;29;20335;-72
2023/04/15 01:25:33;;;;;;;0.20;0.20;;;2.50;99.90;;;2.64;100.00;99270.28;4898841;29;20322;-73
2023/04/15 01:28:02;;;;;;;0.20;0.20;;;;;;;2.60;100.00;99287.59;4879032;29;20238;-73
2023/04/15 01:30:32;;;;;;;0.20;0.20;;;;;;;2.75;100.00;99303.59;4911426;29;20322;-73
2023/04/15 01:33:00;;;;;;;0.20;0.20;;;;;;;2.82;100.00;99322.91;4895284;29;20239;-73
2023/04/15 01:35:27;;;;;;;0.20;0.20;;;;;;;2.69;100.00;99326.97;4911011;29;20243;-73
2023/04/15 01:38:05;;;;;;;0.20;0.20;;;2.60;99.90;;;2.71;100.00;99337.44;4912728;29;20310;-72
2023/04/15 01:40:33;;;;;;;0.25;0.25;;;;;;;2.71;100.00;99355.72;4901814;29;20254;-73
2023/04/15 01:43:02;;;;;;;0.30;0.30;;;2.60;99.90;;;2.67;100.00;99370.41;4893571;29;20242;-73
2023/04/15 01:45:30;;;;;;;0.20;0.20;;;;;;;2.81;100.00;99391.63;4910381;29;20250;-73
2023/04/15 01:47:57;;;;;;;0.20;0.20;;;;;;;2.94;100.00;99411.94;4908270;29;20238;-73
2023/04/15 01:50:26;;;;;;;0.20;0.20;;;;;;;3.15;100.00;99428.09;4903852;29;20326;-73
2023/04/15 01:52:53;;;;;;;0.20;0.20;;;;;;;3.26;100.00;99441.41;4912014;29;20246;-73
2023/04/15 01:55:21;;;;;;;0.20;0.20;;;;;;;3.11;100.00;99433.22;4907251;29;20756;-73
2023/04/15 01:57:48;;;;;;;0.20;0.20;;;;;;;3.04;100.00;99423.47;4910767;29;20322;-73
2023/04/15 02:00:16;;;;;;;0.30;0.30;;;3.00;99.90;;;3.15;100.00;99437.66;4908046;29;20329;-73
2023/04/15 02:02:43;;;;;;;0.30;0.30;;;;;;;3.13;100.00;99441.97;4910590;29;20249;-73
2023/04/15 02:05:11;;;;;;;0.20;0.20;;;;;;;3.11;100.00;99441.06;4915466;29;20261;-73
2023/04/15 02:07:38;;;;;;;0.20;0.20;;;;;;;3.14;100.00;99449.84;4896313;29;20982;-73
2023/04/15 02:10:06;;;;;;;0.20;0.20;;;3.00;99.90;;;3.08;100.00;99459.28;4915455;29;20269;-73
2023/04/15 02:12:33;;;;;;;0.20;0.20;;;;;;;3.20;100.00;99488.28;4912258;29;20272;-73
2023/04/15 02:15:01;;;;;;;0.20;0.20;;;;;;;3.16;100.00;99497.78;4913547;29;20599;-73
2023/04/15 02:17:28;;;;;;;0.20;0.20;;;;;;;3.22;100.00;99502.25;4913852;29;20334;-73
2023/04/15 02:19:56;;;;;;;0.20;0.20;;;;;;;3.26;100.00;99504.09;4909125;29;20298;-73
2023/04/15 02:22:23;;;;;;;0.20;0.20;;;;;;;3.23;100.00;99514.47;4909079;29;20744;-73
2023/04/15 02:24:50;;;;;;;0.43;0.43;;;;;;;3.25;100.00;99511.91;4898217;29;20703;-73
2023/04/15 02:27:18;;;;;;;0.20;0.20;;;;;;;3.18;100.00;99511.75;4915429;29;20275;-73
2023/04/15 02:29:45;;;;;;;0.20;0.20;;;;;;;3.17;100.00;99515.22;4913669;29;20270;-73
2023/04/15 02:32:13;;;;;;;0.20;0.20;;;3.00;99.90;;;3.05;100.00;99501.00;4915290;29;20246;-73
2023/04/15 02:34:41;;;;;;;0.20;0.20;;;;;;;3.11;100.00;99504.63;4913873;29;20266;-73
2023/04/15 02:37:10;;;;;;;0.20;0.20;;;;;;;3.25;100.00;99520.63;4915764;29;20259;-73
2023/04/15 02:39:37;;;;;;;0.20;0.20;;;;;;;2.99;100.00;99504.34;4909538;29;20303;-73
2023/04/15 02:42:06;;;;;;;0.20;0.20;;;;;;;2.91;100.00;99487.59;4910032;29;20238;-72
2023/04/15 02:44:35;;;;;;;0.20;0.20;;;;;;;2.91;100.00;99486.72;4910672;29;20251;-73
2023/04/15 02:47:03;;;;;;;0.40;0.40;;;;;;;2.87;100.00;99504.03;4914201;29;20239;-73
2023/04/15 02:49:31;;;;;;;0.20;0.20;;;;;;;3.00;100.00;99521.78;4915603;29;20242;-73
2023/04/15 02:51:59;;;;;;;0.20;0.20;;;;;;;2.92;100.00;99514.59;4915528;29;20325;-72
2023/04/15 02:54:29;;;;;;;0.30;0.30;;;;;;;2.52;100.00;99506.59;4915486;29;20267;-73
2023/04/15 02:56:57;;;;;;;0.20;0.20;;;;;;;2.63;100.00;99499.09;4914474;29;20231;-73
2023/04/15 02:59:24;;;;;;;0.20;0.20;;;;;;;2.78;100.00;99512.53;4915030;29;20266;-73
2023/04/15 03:01:52;;;;;;;0.20;0.20;;;;;;;2.79;100.00;99521.25;4901520;29;20262;-72
2023/04/15 03:04:20;;;;;;;0.20;0.20;;;;;;;2.77;100.00;99513.38;4915153;29;20321;-73
2023/04/15 03:06:47;;;;;;;0.20;0.20;;;;;;;2.77;100.00;99509.88;4912929;29;20231;-73
2023/04/15 03:09:14;;;;;;;0.50;0.50;;;;;;;2.76;100.00;99515.94;4915888;29;20263;-73
2023/04/15 03:11:42;;;;;;;0.20;0.20;;;;;;;2.75;100.00;99519.41;4915253;29;20354;-73
2023/04/15 03:14:10;;;;;;;0.20;0.20;;;;;;;2.39;100.00;99514.94;4912784;29;20279;-73
2023/04/15 03:16:37;;;;;;;0.20;0.20;;;;;;;2.42;100.00;99521.97;4913762;29;20306;-73
2023/04/15 03:19:05;;;;;;;0.20;0.20;;;;;;;2.25;100.00;99524.13;4910802;29;20326;-73
2023/04/15 03:21:32;;;;;;;0.20;0.20;;;;;;;2.14;100.00;99512.50;4911226;29;20330;-73
2023/04/15 03:24:00;;;;;;;0.20;0.20;;;;;;;2.08;100.00;99522.78;4910302;29;20716;-73
2023/04/15 03:26:31;;;;;;;0.30;0.30;;;2.00;99.90;;;2.15;100.00;99532.53;4912278;29;20319;-73
2023/04/15 03:28:58;;;;;;;0.20;0.20;;;;;;;2.31;100.00;99541.66;4911731;29;20290;-73
2023/04/15 03:31:26;;;;;;;0.20;0.20;;;;;;;2.57;100.00;99570.25;4913329;29;20712;-73
2023/04/15 03:33:53;;;;;;;0.20;0.20;;;;;;;2.63;100.00;99577.38;4912567;29;20235;-73
2023/04/15 03:36:21;;;;;;;0.20;0.20;;;;;;;2.62;100.00;99575.63;4913462;29;20326;-72
2023/04/15 03:38:49;;;;;;;0.20;0.20;;;;;;;2.65;100.00;99580.91;4911005;29;20310;-73
2023/04/15 03:43:46;;;;;;;0.20;0.20;;;;;;;2.36;100.00;99574.88;4918360;28;20226;-73
2023/04/15 03:46:13;;;;;;;0.20;0.20;;;;;;;2.27;100.00;99563.31;4934041;28;20241;-75
2023/04/15 03:48:41;;;;;;;0.20;0.20;;;;;;;2.30;100.00;99571.22;4934608;28;20297;-75
2023/04/15 03:51:08;;;;;;;0.20;0.20;;;;;;;2.20;100.00;99563.13;4940335;28;20309;-75
2023/04/15 03:53:35;;;;;;;0.20;0.20;;;;;;;2.18;100.00;99562.19;4933429;29;20290;-75
2023/04/15 03:56:03;;;;;;;0.30;0.30;;;;;;;2.24;100.00;99570.19;4914948;23;20228;-77
2023/04/15 03:58:30;;;;;;;0.20;0.20;;;;;;;2.18;100.00;99577.84;4895768;29;20291;-77
2023/04/15 04:00:58;;;;;;;0.20;0.20;;;;;;;2.09;100.00;99579.31;4895696;29;20243;-77
2023/04/15 04:03:25;;;;;;;0.20;0.20;;;;;;;2.09;100.00;99581.91;4895969;29;20318;-78
2023/04/15 04:05:54;;;;;;;0.20;0.20;;;;;;;2.18;100.00;99583.06;4894393;29;20679;-77
2023/04/15 04:08:21;;;;;;;0.20;0.20;;;;;;;2.13;100.00;99591.59;4877689;29;20243;-78
2023/04/15 04:10:49;;;;;;;0.20;0.20;;;;;;;2.03;100.00;99585.22;4890604;29;20276;-76
2023/04/15 04:13:16;;;;;;;0.10;0.10;;;;;;;2.09;100.00;99587.13;4894671;29;20339;-76
2023/04/15 04:15:43;;;;;;;0.20;0.20;;;;;;;2.16;100.00;99595.19;4893774;29;20239;-76
2023/04/15 04:18:11;;;;;;;0.30;0.30;;;;;;;2.19;100.00;99610.91;4857880;29;20331;-76
2023/04/15 04:20:38;;;;;;;0.30;0.30;;;;;;;2.24;100.00;99609.31;4891670;29;20792;-76
2023/04/15 04:23:06;;;;;;;0.20;0.20;;;;;;;2.09;100.00;99613.22;4868913;29;20248;-76
2023/04/15 04:25:33;;;;;;;0.20;0.20;;;;;;;1.92;100.00;99600.56;4873346;29;20264;-76
2023/04/15 04:28:00;;;;;;;2.00;1.40;;;;;;;2.00;100.00;99606.00;4873959;29;20735;-76
2023/04/15 04:30:28;;;;;;;0.20;0.20;;;;;;;2.13;100.00;99631.59;4873340;29;20241;-76
2023/04/15 04:32:55;;;;;;;0.30;0.30;;;;;;;2.18;100.00;99644.78;4883693;29;20326;-76
2023/04/15 04:35:23;;;;;;;0.30;0.30;;;;;;;2.21;100.00;99650.09;4859539;29;20339;-76
2023/04/15 04:37:51;;;;;;;0.30;0.30;;;;;;;2.02;100.00;99655.59;4872635;29;20332;-76
2023/04/15 04:40:18;;;;;;;0.28;0.28;;;;;;;1.93;100.00;99635.34;4876799;29;20251;-76
2023/04/15 04:42:45;;;;;;;0.30;0.30;;;2.00;99.90;;;2.07;100.00;99643.56;4858212;29;20268;-76
2023/04/15 04:45:13;;;;;;;0.20;0.20;;;;;;;2.01;100.00;99652.09;4840626;29;20269;-76
2023/04/15 04:47:40;;;;;;;0.20;0.20;;;;;;;2.04;100.00;99654.81;4849469;29;20287;-76
2023/04/15 04:50:08;;;;;;;0.30;0.30;;;2.10;99.90;;;2.17;100.00;99672.59;4872423;29;20260;-76
2023/04/15 04:52:35;;;;;;;0.20;0.20;;;;;;;2.00;100.00;99665.97;4875453;29;20235;-76
2023/04/15 04:55:03;;;;;;;0.20;0.20;;;;;;;1.86;100.00;99659.44;4869156;29;20291;-76
2023/04/15 04:57:30;;;;;;;0.20;0.20;;;;;;;1.89;100.00;99654.34;4857001;29;20240;-76
2023/04/15 04:59:58;;;;;;;0.20;0.20;;;;;;;2.07;100.00;99677.47;4870310;29;20272;-76
2023/04/15 05:02:26;;;;;;;0.20;0.20;;;;;;;2.18;100.00;99692.63;4874630;29;20328;-76
2023/04/15 05:04:54;;;;;;;0.20;0.20;;;;;;;2.32;100.00;99700.84;4872193;29;20255;-79
2023/04/15 05:07:21;;;;;;;0.45;0.45;;;2.20;99.90;;;2.42;100.00;99704.63;4871809;29;20331;-77
2023/04/15 05:09:48;;;;;;;0.20;0.20;;;2.20;99.90;;;2.37;100.00;99693.16;4875842;29;20688;-76
2023/04/15 05:12:17;;;;;;;0.30;0.30;;;;;;;2.34;100.00;99693.97;4868478;29;20259;-78
2023/04/15 05:14:45;;;;;;;0.20;0.20;;;;;;;2.30;100.00;99692.09;4866236;29;20319;-79
2023/04/15 05:17:13;;;;;;;0.20;0.20;;;;;;;2.25;100.00;99702.41;4871164;29;20240;-78
2023/04/15 05:19:40;;;;;;;0.20;0.20;;;;;;;2.30;100.00;99722.53;5456488;23;20243;-76
2023/04/15 05:22:07;;;;;;;0.20;0.20;;;;;;;2.36;100.00;99725.31;4918539;29;20301;-75
2023/04/15 05:24:35;;;;;;;0.20;0.20;;;;;;;2.29;100.00;99731.19;4928435;29;20246;-80
2023/04/15 05:27:02;;;;;;;0.20;0.20;;;;;;;2.35;100.00;99736.59;4925273;29;20274;-79
2023/04/15 05:29:30;;;;;;;0.20;0.20;;;;;;;2.40;100.00;99741.09;4902695;29;20249;-78
2023/04/15 05:31:58;;;;;;;0.20;0.20;;;;;;;2.43;100.00;99751.63;4924013;28;20242;-81
2023/04/15 05:34:25;;;;;;;0.20;0.20;;;;;;;2.44;100.00;99763.84;4907516;29;20242;-79
2023/04/15 05:36:53;;;;;;;0.20;0.20;;;;;;;2.47;100.00;99763.06;4910315;28;20253;-78
2023/04/15 05:39:20;;;;;;;0.20;0.20;;;;;;;2.60;100.00;99783.50;4914272;29;20396;-82
2023/04/15 05:41:48;;;;;;;0.30;0.30;;;;;;;2.70;100.00;99793.38;4908850;29;20683;-81
2023/04/15 05:44:15;;;;;;;0.20;0.20;;;;;;;2.79;100.00;99803.22;4913506;29;20328;-77
2023/04/15 05:46:43;;;;;;;0.20;0.20;;;;;;;2.86;100.00;99815.59;4916353;29;20250;-78
2023/04/15 05:49:10;;;;;;;0.20;0.20;;;2.80;99.90;;;2.87;100.00;99813.03;4912155;29;20333;-78
2023/04/15 05:51:37;;;;;;;0.20;0.20;;;;;;;2.96;100.00;99825.50;4911737;29;20230;-77
2023/04/15 05:54:05;;;;;;;0.20;0.20;;;;;;;3.02;100.00;99825.66;4911545;29;20270;-77
2023/04/15 05:56:33;;;;;;;0.20;0.20;;;;;;;3.10;100.00;99831.13;4913922;29;20315;-77
2023/04/15 05:59:00;;;;;;;0.30;0.30;;;;;;;3.17;100.00;99835.69;5037496;23;20651;-74
2023/04/15 06:01:28;;;;;;;0.20;0.20;;;;;;;3.50;100.00;99856.66;4918911;28;20294;-74
2023/04/15 06:03:55;;;;;;;0.20;0.20;;;;;;;3.54;100.00;99851.53;4915325;29;20262;-74
2023/04/15 06:06:24;;;;;;;0.50;0.50;;;;;;;3.66;100.00;99845.78;4914424;29;20325;-75
2023/04/15 06:08:51;;;;;;;0.20;0.20;;;;;;;3.70;100.00;99834.53;4913573;28;20318;-74
2023/04/15 06:11:20;;;;;;;0.20;0.20;;;3.80;99.90;;;3.84;100.00;99853.22;4898432;29;20255;-74
2023/04/15 06:13:48;;;;;;;0.20;0.20;;;;;;;3.90;100.00;99849.88;4910945;29;20259;-74
2023/04/15 06:16:15;;;;;;;0.20;0.20;;;;;;;4.17;100.00;99855.84;4911131;28;20243;-73
2023/04/15 06:18:43;;;;;;;0.20;0.20;;;;;;;4.18;100.00;99844.53;4909850;29;20295;-75
2023/04/15 06:21:10;;;;;;;0.20;0.20;;;;;;;4.27;100.00;99843.88;4916524;28;20270;-75
2023/04/15 06:23:40;;;;;;;0.20;0.20;;;;;;;4.44;100.00;99839.94;4915456;29;20235;-76
2023/04/15 06:26:07;;;;;;;0.20;0.20;;;;;;;4.72;100.00;99846.72;4918621;28;20243;-76
2023/04/15 06:28:35;;;;;;;0.20;0.20;;;;;;;4.98;100.00;99850.78;4915196;29;20243;-74
2023/04/15 06:31:02;;;;;;;0.20;0.20;;;;;;;5.33;100.00;99848.94;4912866;28;20243;-74
2023/04/15 06:33:31;;;;;;;0.20;0.20;;;5.40;99.90;;;5.57;100.00;99832.81;4910075;29;20246;-73
2023/04/15 06:37:03;;;;;;;0.20;0.20;;;5.50;99.90;;;5.73;100.00;99776.28;4910236;29;20298;-74
2023/04/15 06:39:32;;;;;;;0.20;0.20;;;;;;;5.99;100.00;99767.16;4863650;29;20263;-76
2023/04/15 06:42:00;;;;;;;0.20;0.20;;;;;;;6.05;100.00;99733.13;4890096;29;20724;-74
2023/04/15 06:44:28;;;;;;;0.20;0.20;;;;;;;6.20;100.00;99727.22;4893107;29;20235;-74
2023/04/15 06:46:57;;;;;;;0.20;0.20;;;;;;;6.28;100.00;99728.22;4894749;29;20239;-74
2023/04/15 06:49:25;;;;;;;0.20;0.20;;;;;;;6.44;100.00;99718.81;4895590;29;20257;-74
2023/04/15 06:51:52;;;;;;;0.20;0.20;;;;;;;6.44;100.00;99705.69;4893117;29;20278;-74
2023/04/15 06:54:20;;;;;;;0.13;0.13;;;;;;;6.62;100.00;99699.84;4889014;29;20240;-76
2023/04/15 06:56:47;;;;;;;0.20;0.20;;;6.60;99.90;;;6.88;100.00;99705.41;4894561;29;20322;-76
2023/04/15 06:59:14;;;;;;;0.20;0.20;;;;;;;7.03;100.00;99685.44;4893354;29;20236;-76
2023/04/15 07:01:42;;;;;;;0.10;0.10;;;;;;;7.17;100.00;99668.94;4885023;29;20244;-75
2023/04/15 07:04:10;;;;;;;0.20;0.20;;;;;;;7.23;100.00;99650.59;4890921;29;20231;-76
2023/04/15 07:06:39;;;;;;;0.20;0.20;;;;;;;7.43;100.00;99649.03;4903050;29;20262;-76
2023/04/15 07:09:07;;;;;;;0.20;0.20;;;7.30;99.90;;;7.57;100.00;99620.22;4921266;29;20774;-76
2023/04/15 07:11:35;;;;;;;0.20;0.20;;;;;;;7.73;100.00;99595.78;4915547;29;20675;-76
2023/04/15 07:14:03;;;;;;;0.20;0.20;;;;;;;7.97;100.00;99576.66;4911990;29;20243;-75
2023/04/15 07:16:30;;;;;;;0.20;0.20;;;7.80;99.90;;;8.06;100.00;99534.59;4915010;29;20252;-76
2023/04/15 07:18:58;;;;;;;0.13;0.13;;;8.20;99.90;;;8.29;100.00;99526.78;4901766;29;20243;-75
2023/04/15 07:21:27;;;;;;;0.20;0.20;;;;;;;8.43;100.00;99493.47;4900312;29;20238;-76
2023/04/15 07:23:54;;;;;;;0.15;0.15;;;8.40;99.90;;;8.73;100.00;99476.84;4892427;29;20231;-76
2023/04/15 07:26:22;;;;;;;0.20;0.20;;;;;;;8.74;100.00;99435.56;4913811;29;20323;-76
2023/04/15 07:28:50;;;;;;;0.20;0.20;;;;;;;8.82;100.00;99407.44;4913072;29;20267;-75
2023/04/15 07:31:18;;;;;;;0.35;0.35;;;;;;;8.87;100.00;99387.22;4911918;29;20242;-76
2023/04/15 07:33:45;;;;;;;0.10;0.10;;;;;;;9.00;100.00;99375.78;4894486;29;20231;-76
2023/04/15 07:36:13;;;;;;;0.20;0.20;;;;;;;9.20;100.00;99368.72;4913465;29;20274;-77
2023/04/15 07:38:40;;;;;;;0.10;0.10;;;;;;;9.19;100.00;99340.59;4896034;29;20254;-77
2023/04/15 07:41:08;;;;;;;0.10;0.10;;;;;;;9.34;100.00;99317.69;4910970;29;20258;-77
2023/04/15 07:43:35;;;;;;;0.10;0.10;;;;;;;9.37;100.00;99296.56;4907664;29;20239;-76
2023/04/15 07:46:02;;;;;;;0.10;0.10;;;;;;;9.48;100.00;99278.94;4907168;29;20255;-76
2023/04/15 07:48:30;;;;;;;0.10;0.10;;;;;;;9.62;100.00;99263.88;4905261;29;20330;-77
2023/04/15 07:50:58;;;;;;;0.10;0.10;;;9.50;99.90;;;9.76;100.00;99250.59;4906557;29;20247;-77
2023/04/15 07:53:25;;;;;;;0.10;0.10;;;;;;;9.89;100.00;99249.63;4896162;29;20759;-77
2023/04/15 07:55:52;;;;;;;0.10;0.10;;;;;;;10.31;100.00;99276.63;4904569;29;20314;-77
2023/04/15 07:58:20;;;;;;;0.10;0.10;;;;;;;10.06;100.00;99254.78;4899577;29;20691;-77
2023/04/15 08:00:47;;;;;;;0.10;0.10;;;;;;;10.18;100.00;99254.69;4911497;29;20269;-77
2023/04/15 08:03:15;;;;;;;0.10;0.10;;;;;;;10.30;100.00;99249.34;4915133;29;20238;-77
2023/04/15 08:05:43;;;;;;;0.10;0.10;;;;;;;10.21;100.00;99254.69;4900375;29;20235;-75
2023/04/15 08:08:10;;;;;;;0.28;0.28;;;;;;;10.36;100.00;99248.41;4914396;29;20324;-76
2023/04/15 08:10:38;;;;;;;0.10;0.10;;;;;;;10.32;100.00;99239.63;4913352;29;20247;-76
2023/04/15 08:13:06;;;;;;;0.30;0.30;;;;;;;10.47;100.00;99236.88;4882382;29;20334;-77
2023/04/15 08:15:34;;;;;;;2.28;0.75;;;;;;;10.46;100.00;99237.75;4911731;29;20258;-77
2023/04/15 08:18:01;;;;;;;0.10;0.10;;;;;;;10.50;100.00;99255.34;4914532;29;20258;-76
2023/04/15 08:20:28;;;;;;;0.10;0.10;;;;;;;10.45;100.00;99243.94;4914471;29;20321;-76
2023/04/15 08:22:56;;;;;;;0.10;0.10;;;;;;;10.43;100.00;99256.28;4909843;29;20302;-77
2023/04/15 08:25:23;;;;;;;0.10;0.10;;;10.40;99.90;;;10.51;100.00;99275.59;4911796;29;20243;-77
2023/04/15 08:27:50;;;;;;;0.10;0.10;;;;;;;10.27;100.00;99273.13;4914557;29;20716;-76
2023/04/15 08:30:18;;;;;;;0.10;0.10;;;10.40;99.90;;;10.45;100.00;99265.09;4913064;29;20239;-76
2023/04/15 08:32:46;;;;;;;0.10;0.10;;;;;;;10.74;100.00;99279.78;4911932;29;20239;-76
2023/04/15 08:35:14;;;;;;;0.10;0.10;;;;;;;10.62;100.00;99261.41;4913650;29;20243;-76
2023/04/15 08:37:41;;;;;;;0.10;0.10;;;;;;;10.78;100.00;99271.81;4913282;29;20317;-76
2023/04/15 08:40:10;;;;;;;0.10;0.10;;;10.70;99.90;;;10.82;100.00;99272.66;4910727;29;20325;-75
2023/04/15 08:42:43;;;;;;;0.10;0.10;;;10.70;99.90;;;10.79;100.00;99241.81;4913334;29;20239;-76
2023/04/15 08:45:11;;;;;;;0.10;0.10;;;;;;;10.93;100.00;99214.34;4910448;29;20730;-76
2023/04/15 08:47:38;;;;;;;0.10;0.10;;;;;;;11.03;100.00;99195.69;4918127;29;20288;-76
2023/04/15 08:50:09;;;;;;;0.10;0.10;;;11.00;99.90;;;11.13;100.00;99192.03;4911233;29;20298;-76
2023/04/15 08:52:37;;;;;;;0.10;0.10;;;;;;;11.25;100.00;99198.06;4905240;29;20305;-76
2023/04/15 08:55:06;;;;;;;0.10;0.10;;;10.70;99.90;;;11.20;100.00;99185.78;4892557;29;20263;-77
2023/04/15 08:57:33;;;;;;;0.10;0.10;;;;;;;11.19;100.00;99156.69;4867305;29;20270;-76
2023/04/15 09:00:02;;;;;;;0.25;0.25;;;11.10;99.90;;;11.38;100.00;99146.72;4877533;29;20231;-76
2023/04/15 09:02:32;;;;;;;0.10;0.10;;;;;;;11.31;100.00;99130.03;4892072;29;20322;-76
2023/04/15 09:05:00;;;;;;;0.10;0.10;;;;;;;11.35;100.00;99121.16;4898337;29;20235;-76
2023/04/15 09:07:27;;;;;;;0.10;0.10;;;;;;;11.41;100.00;99128.13;4895673;29;20323;-76
2023/04/15 09:09:54;;;;;;;0.10;0.10;;;;;;;11.30;100.00;99128.31;4890353;29;20259;-76
2023/04/15 09:12:22;;;;;;;0.10;0.10;;;;;;;11.59;100.00;99146.38;4921846;29;20270;-77
2023/04/15 09:14:49;;;;;;;0.10;0.10;;;11.40;99.90;;;11.48;100.00;99121.84;4894043;29;20267;-76
2023/04/15 09:17:25;;;;;;;0.10;0.10;;;11.50;99.90;;;11.73;100.00;99117.94;4912564;29;20231;-76
2023/04/15 09:20:13;;;;;;;0.20;0.20;;;11.60;99.90;;;12.02;100.00;99121.91;4912701;29;20235;-76
2023/04/15 09:22:41;;;;;;;0.40;0.40;;;11.40;99.90;;;11.55;100.00;99060.84;4916735;29;20262;-76
2023/04/15 09:25:15;;;;;;;0.10;0.10;;;11.60;99.90;;;11.73;100.00;99066.75;4906982;29;20234;-76
2023/04/15 09:27:49;;;;;;;0.10;0.10;;;11.70;99.90;;;11.96;100.00;99088.44;4914041;29;20266;-76
2023/04/15 09:30:17;;;;;;;0.30;0.30;;;11.70;99.90;;;11.92;100.00;99046.13;4896462;29;20266;-77
2023/04/15 09:32:56;;;;;;;0.10;0.10;;;11.80;99.90;;;11.89;100.00;99012.63;4913882;29;20239;-76
2023/04/15 09:35:26;;;;;;;0.10;0.10;;;11.60;99.90;;;11.74;100.00;98994.34;4867192;29;20236;-77
2023/04/15 09:38:08;;;;;;;0.57;0.57;;;12.00;99.90;;;12.03;100.00;99015.88;4899053;29;20227;-78
2023/04/15 09:40:36;;;;;;;0.45;0.45;;;;;;;12.11;100.00;99027.22;4917704;29;20653;-76
2023/04/15 09:43:05;;;;;;;0.00;0.00;;;12.10;99.90;;;12.26;100.00;99030.47;4932419;29;20660;-76
2023/04/15 09:45:35;;;;;;;0.10;0.10;;;12.00;99.90;;;12.02;100.00;98986.78;4928442;29;20230;-76
2023/04/15 09:48:26;;;;;;;0.10;0.10;;;12.10;99.90;;;12.21;100.00;99001.41;4908777;29;20227;-77
2023/04/15 09:50:56;;;;;;;0.17;0.17;;;;;;;12.15;100.00;98988.28;4906922;29;20247;-75
2023/04/15 09:53:24;;;;;;;0.00;0.00;;;12.10;99.90;;;12.32;100.00;99004.69;4898831;29;20239;-75
2023/04/15 09:55:57;;;;;;;0.10;0.10;;;12.40;99.90;;;12.68;100.00;99021.59;4909715;29;20238;-76
2023/04/15 09:58:27;;;;;;;0.10;0.10;;;12.50;99.90;;;12.77;100.00;99015.22;4885578;29;20237;-75
2023/04/15 10:00:56;;;;;;;0.10;0.10;;;12.80;99.90;;;12.82;100.00;99019.50;4907012;29;20723;-74
2023/04/15 10:03:26;;;;;;;0.10;0.10;;;13.10;99.90;;;13.50;100.00;99020.63;4890380;29;20254;-76
2023/04/15 10:05:58;;;;;;;0.10;0.10;;;13.40;99.90;;;13.52;100.00;98979.81;4913699;29;20238;-75
2023/04/15 10:08:32;;;;;;;0.10;0.10;;;13.30;99.90;;;13.46;100.00;98953.44;4903711;29;20242;-76
2023/04/15 10:11:03;;;;;;;0.10;0.10;;;13.50;99.90;;;13.95;100.00;98987.50;4911323;29;20639;-76
2023/04/15 10:13:33;;;;;;;0.00;0.00;;;;;;;14.11;100.00;98964.03;4894435;29;20328;-76
2023/04/15 10:16:10;;;;;;;0.10;0.10;;;14.00;99.90;;;14.30;100.00;98928.03;4908638;29;20232;-76
2023/04/15 10:18:44;;;;;;;0.10;0.10;;;14.20;99.90;;;14.38;100.00;98880.81;4924421;29;20392;-76
2023/04/15 10:21:17;;;;;;;0.20;0.20;;;;;;;13.91;100.00;98791.00;4906088;29;20242;-74
2023/04/15 10:23:45;;;;;;;0.00;0.00;;;13.90;99.90;;;14.07;100.00;98760.38;4910664;29;20298;-76
2023/04/15 10:26:16;;;;;;;0.10;0.10;;;;;;;13.86;100.00;98716.75;4912178;29;20267;-75
2023/04/15 10:28:45;;;;;;;0.10;0.10;;;;;;;14.20;100.00;98790.97;4915479;29;20235;-76
2023/04/15 10:31:14;;;;;;;0.00;0.00;;;14.10;99.90;;;14.43;100.00;98768.13;4913213;29;20238;-76
2023/04/15 10:33:43;;;;;;;0.10;0.10;;;14.10;99.90;;;14.21;100.00;98678.38;4916678;29;20331;-76
2023/04/15 10:36:11;;;;;;;0.00;0.00;;;14.30;99.90;;;14.39;100.00;98669.81;4899847;29;20270;-76
2023/04/15 10:38:45;;;;;;;0.15;0.15;;;;;;;14.64;100.00;98645.03;4913639;29;20268;-78
2023/04/15 10:41:22;;;;;;;0.10;0.10;;;14.40;99.90;;;14.62;100.00;98653.09;4916367;29;20246;-77
2023/04/15 10:44:03;;;;;;;0.10;0.10;;;14.90;99.90;;;14.97;100.00;98649.13;4916763;29;20616;-77
2023/04/15 10:46:41;;;;;;;0.05;0.05;;;14.90;99.90;;;14.76;100.00;98609.16;4912259;29;20586;-75
2023/04/15 10:49:17;;;;;;;0.10;0.10;;;14.80;99.90;;;14.73;100.00;98584.38;4922379;29;20244;-76
2023/04/15 10:51:52;;;;;;;0.03;0.03;;;15.00;99.90;;;14.78;100.00;98562.06;4906774;29;20290;-79
2023/04/15 10:54:25;;;;;;;0.10;0.10;;;14.90;99.90;;;14.94;100.00;98580.06;4896187;29;20235;-77
2023/04/15 10:57:06;;;;;;;0.00;0.00;;;14.40;99.90;;;14.82;100.00;98537.94;4901133;28;20263;-78
2023/04/15 10:59:57;;;;;;;0.38;0.38;;;14.50;99.90;;;14.91;100.00;98497.66;4895516;29;20299;-77
2023/04/15 11:02:39;;;;;;;0.00;0.00;;;14.50;99.90;;;14.65;100.00;98439.28;4894259;29;20243;-78
2023/04/15 11:05:09;;;;;;;0.10;0.10;;;14.90;99.90;;;15.25;100.00;98547.78;4898027;29;20258;-77
2023/04/15 11:07:45;;;;;;;0.10;0.10;;;14.90;99.90;;;14.94;100.00;98486.03;4913355;28;20235;-77
2023/04/15 11:10:24;;;;;;;0.10;0.10;;;14.80;99.90;;;15.01;100.00;98488.38;4912255;29;20294;-80
2023/04/15 11:12:56;;;;;;;0.10;0.10;;;15.50;99.90;;;15.79;100.00;98556.31;4913433;29;20238;-78
2023/04/15 11:15:32;;;;;;;0.00;0.00;;;16.20;99.90;;;16.51;100.00;98580.72;4917525;29;20246;-79
2023/04/15 11:18:15;;;;;;;0.05;0.05;;;16.40;99.90;;;16.34;100.00;98493.44;4915010;29;20400;-78
2023/04/15 11:20:54;;;;;;;0.00;0.00;;;16.50;99.90;;;16.45;100.00;98493.81;4904517;29;20238;-78